Time;durP1;ratioP1;P1;durP2;ratioP2;P2;SDS_P1;SDS_P2;PMS_P1;PMS_P2;Temp;Humidity;BMP_temperature;BMP_pressure;BME280_temperature;BME280_humidity;BME280_pressure;Samples;Min_cycle;Max_cycle;Signal;HPM_P1;HPM_P2
2020/04/06 00:01:59;;;;;;;3.55;2.37;;;;;;;19.29;32.46;100803.88;;;;-52
2020/04/06 00:04:58;;;;;;;2.38;2.18;;;;;;;19.27;32.49;100805.28;;;;-53
2020/04/06 00:07:58;;;;;;;2.45;2.25;;;;;;;19.26;32.45;100806.34;;;;-53
2020/04/06 00:10:57;;;;;;;2.49;2.29;;;;;;;19.25;32.46;100803.95;;;;-52
2020/04/06 00:13:57;;;;;;;2.31;2.11;;;;;;;19.25;32.45;100804.84;;;;-52
2020/04/06 00:16:58;;;;;;;2.51;2.31;;;;;;;19.24;32.43;100797.27;;;;-53
2020/04/06 00:19:57;;;;;;;2.53;2.33;;;;;;;19.23;32.45;100793.69;;;;-52
2020/04/06 00:22:58;;;;;;;2.40;2.20;;;;;;;19.22;32.46;100794.25;;;;-52
2020/04/06 00:25:58;;;;;;;2.43;2.22;;;;;;;19.21;32.45;100795.94;;;;-52
2020/04/06 00:28:57;;;;;;;2.29;2.10;;;;;;;19.21;32.47;100793.86;;;;-52
2020/04/06 00:31:58;;;;;;;2.23;2.03;;;;;;;19.20;32.45;100793.98;;;;-52
2020/04/06 00:34:57;;;;;;;2.49;2.29;;;;;;;19.19;32.46;100790.02;;;;-52
2020/04/06 00:37:57;;;;;;;2.30;2.10;;;;;;;19.18;32.47;100791.70;;;;-52
2020/04/06 00:40:57;;;;;;;2.66;2.34;;;;;;;19.18;32.45;100793.60;;;;-52
2020/04/06 00:43:58;;;;;;;2.59;2.36;;;;;;;19.17;32.50;100797.34;;;;-53
2020/04/06 00:46:57;;;;;;;2.55;2.35;;;;;;;19.17;32.49;100799.98;;;;-52
2020/04/06 00:49:58;;;;;;;2.51;2.31;;;;;;;19.17;32.48;100805.00;;;;-52
2020/04/06 00:52:58;;;;;;;2.48;2.28;;;;;;;19.16;32.48;100799.20;;;;-52
2020/04/06 00:55:57;;;;;;;2.40;2.20;;;;;;;19.15;32.49;100803.27;;;;-52
2020/04/06 00:58:58;;;;;;;2.47;2.27;;;;;;;19.14;32.49;100804.66;;;;-52
2020/04/06 01:01:58;;;;;;;2.28;2.08;;;;;;;19.13;32.51;100807.68;;;;-53
2020/04/06 01:04:58;;;;;;;2.43;2.23;;;;;;;19.13;32.49;100806.34;;;;-52
2020/04/06 01:07:58;;;;;;;2.49;2.29;;;;;;;19.11;32.52;100806.37;;;;-52
2020/04/06 01:10:58;;;;;;;2.43;2.23;;;;;;;19.12;32.48;100811.84;;;;-52
2020/04/06 01:13:57;;;;;;;2.37;2.17;;;;;;;19.10;32.50;100809.44;;;;-52
2020/04/06 01:16:58;;;;;;;2.42;2.22;;;;;;;19.11;32.51;100815.23;;;;-52
2020/04/06 01:19:58;;;;;;;2.30;2.10;;;;;;;19.10;32.50;100812.84;;;;-52
2020/04/06 01:22:57;;;;;;;2.40;2.19;;;;;;;19.09;32.51;100817.92;;;;-52
2020/04/06 01:25:57;;;;;;;2.40;2.20;;;;;;;19.08;32.51;100816.42;;;;-52
2020/04/06 01:28:57;;;;;;;2.42;2.21;;;;;;;19.07;32.51;100820.16;;;;-52
2020/04/06 01:31:58;;;;;;;2.37;2.17;;;;;;;19.07;32.52;100818.16;;;;-52
2020/04/06 01:34:58;;;;;;;2.30;2.10;;;;;;;19.06;32.53;100818.44;;;;-52
2020/04/06 01:37:57;;;;;;;2.47;2.27;;;;;;;19.06;32.51;100819.51;;;;-53
2020/04/06 01:40:58;;;;;;;2.60;2.40;;;;;;;19.05;32.55;100821.73;;;;-52
2020/04/06 01:44:57;;;;;;;2.37;2.17;;;;;;;19.05;32.55;100827.15;;;;-52
2020/04/06 01:48:05;;;;;;;2.52;2.32;;;;;;;19.04;32.54;100824.99;;;;-52
2020/04/06 01:50:58;;;;;;;2.36;2.16;;;;;;;19.03;32.54;100825.71;;;;-52
2020/04/06 01:53:58;;;;;;;3.10;2.12;;;;;;;19.03;32.56;100828.66;;;;-52
2020/04/06 01:56:57;;;;;;;2.27;2.07;;;;;;;19.03;32.53;100828.21;;;;-52
2020/04/06 01:59:57;;;;;;;2.50;2.30;;;;;;;19.02;32.55;100828.44;;;;-52
2020/04/06 02:04:58;;;;;;;2.59;2.39;;;;;;;19.01;32.52;100838.10;;;;-52
2020/04/06 02:07:57;;;;;;;2.51;2.25;;;;;;;19.01;32.52;100836.08;;;;-52
2020/04/06 02:11:10;;;;;;;2.43;2.23;;;;;;;19.00;32.54;100836.54;;;;-52
2020/04/06 02:13:57;;;;;;;2.60;2.40;;;;;;;18.99;32.57;100837.83;;;;-52
2020/04/06 02:17:01;;;;;;;2.26;2.06;;;;;;;18.99;32.56;100841.06;;;;-52
2020/04/06 02:19:57;;;;;;;2.30;2.10;;;;;;;18.98;32.55;100842.69;;;;-52
2020/04/06 02:22:58;;;;;;;2.34;2.14;;;;;;;18.98;32.58;100845.20;;;;-52
2020/04/06 02:25:57;;;;;;;2.39;2.19;;;;;;;18.97;32.57;100847.27;;;;-52
2020/04/06 02:28:58;;;;;;;2.27;2.09;;;;;;;18.97;32.57;100853.00;;;;-52
2020/04/06 02:31:58;;;;;;;2.31;2.11;;;;;;;18.96;32.59;100861.50;;;;-52
2020/04/06 02:34:57;;;;;;;2.35;2.14;;;;;;;18.95;32.58;100859.64;;;;-52
2020/04/06 02:37:57;;;;;;;2.53;2.33;;;;;;;18.94;32.57;100858.81;;;;-53
2020/04/06 02:40:58;;;;;;;2.32;2.12;;;;;;;18.94;32.58;100864.17;;;;-52
2020/04/06 02:43:57;;;;;;;2.34;2.03;;;;;;;18.95;32.56;100864.62;;;;-52
2020/04/06 02:46:58;;;;;;;2.47;2.27;;;;;;;18.93;32.61;100864.39;;;;-52
2020/04/06 02:49:58;;;;;;;2.76;2.31;;;;;;;18.93;32.57;100860.83;;;;-52
2020/04/06 02:52:57;;;;;;;2.38;2.18;;;;;;;18.92;32.59;100862.05;;;;-53
2020/04/06 02:55:58;;;;;;;2.24;2.04;;;;;;;18.91;32.58;100867.03;;;;-52
2020/04/06 02:58:57;;;;;;;2.49;2.29;;;;;;;18.92;32.57;100868.98;;;;-52
2020/04/06 03:01:58;;;;;;;2.41;2.21;;;;;;;18.91;32.60;100873.66;;;;-52
2020/04/06 03:04:58;;;;;;;2.30;2.10;;;;;;;18.89;32.58;100876.47;;;;-52
2020/04/06 03:07:58;;;;;;;2.44;2.24;;;;;;;18.90;32.59;100883.37;;;;-53
2020/04/06 03:10:58;;;;;;;2.39;2.19;;;;;;;18.89;32.57;100884.50;;;;-52
2020/04/06 03:13:57;;;;;;;2.39;2.19;;;;;;;18.88;32.61;100888.96;;;;-52
2020/04/06 03:16:57;;;;;;;2.79;2.37;;;;;;;18.89;32.58;100891.34;;;;-52
2020/04/06 03:19:58;;;;;;;2.41;2.21;;;;;;;18.88;32.60;100889.73;;;;-53
2020/04/06 03:22:57;;;;;;;2.48;2.28;;;;;;;18.88;32.56;100899.55;;;;-52
2020/04/06 03:25:58;;;;;;;2.46;2.26;;;;;;;18.86;32.60;100909.13;;;;-52
2020/04/06 03:28:58;;;;;;;2.33;2.13;;;;;;;18.86;32.60;100915.17;;;;-52
2020/04/06 03:31:57;;;;;;;2.35;2.15;;;;;;;18.86;32.59;100910.99;;;;-52
2020/04/06 03:34:57;;;;;;;2.31;2.11;;;;;;;18.85;32.58;100910.77;;;;-52
2020/04/06 03:37:58;;;;;;;2.47;2.27;;;;;;;18.85;32.60;100913.45;;;;-52
2020/04/06 03:40:58;;;;;;;2.35;2.15;;;;;;;18.85;32.59;100912.45;;;;-52
2020/04/06 03:43:58;;;;;;;2.38;2.18;;;;;;;18.86;32.59;100910.83;;;;-52
2020/04/06 03:46:58;;;;;;;2.27;2.07;;;;;;;18.87;32.59;100909.38;;;;-52
2020/04/06 03:49:58;;;;;;;2.51;2.31;;;;;;;18.88;32.62;100912.88;;;;-53
2020/04/06 03:52:57;;;;;;;2.45;2.25;;;;;;;18.90;32.57;100913.39;;;;-52
2020/04/06 03:55:57;;;;;;;2.46;2.26;;;;;;;18.92;32.58;100913.09;;;;-52
2020/04/06 03:58:57;;;;;;;2.53;2.33;;;;;;;18.96;32.56;100915.33;;;;-52
2020/04/06 04:01:57;;;;;;;2.52;2.32;;;;;;;18.99;32.53;100916.50;;;;-52
2020/04/06 04:04:58;;;;;;;2.87;2.42;;;;;;;19.03;32.54;100916.44;;;;-52
2020/04/06 04:07:57;;;;;;;2.45;2.25;;;;;;;19.07;32.59;100918.48;;;;-52
2020/04/06 04:10:57;;;;;;;2.33;2.13;;;;;;;19.13;32.58;100921.28;;;;-52
2020/04/06 04:13:57;;;;;;;2.43;2.20;;;;;;;19.16;32.61;100925.88;;;;-52
2020/04/06 04:16:57;;;;;;;2.46;2.11;;;;;;;19.20;32.53;100931.34;;;;-52
2020/04/06 04:19:58;;;;;;;2.49;2.29;;;;;;;19.24;32.56;100937.52;;;;-52
2020/04/06 04:22:57;;;;;;;2.61;2.41;;;;;;;19.29;32.55;100938.41;;;;-52
2020/04/06 04:25:57;;;;;;;2.47;2.27;;;;;;;19.34;32.57;100942.24;;;;-53
2020/04/06 04:28:58;;;;;;;2.45;2.25;;;;;;;19.36;32.54;100943.34;;;;-52
2020/04/06 04:31:57;;;;;;;2.37;2.17;;;;;;;19.37;32.63;100943.47;;;;-52
2020/04/06 04:34:57;;;;;;;2.39;2.17;;;;;;;19.42;32.61;100946.64;;;;-52
2020/04/06 04:37:57;;;;;;;2.29;2.10;;;;;;;19.44;32.58;100950.53;;;;-52
2020/04/06 04:40:58;;;;;;;2.30;2.10;;;;;;;19.45;32.50;100949.03;;;;-52
2020/04/06 04:43:57;;;;;;;2.52;2.32;;;;;;;19.46;32.57;100955.73;;;;-52
2020/04/06 04:46:58;;;;;;;2.40;2.20;;;;;;;19.49;32.57;100957.73;;;;-52
2020/04/06 04:49:57;;;;;;;2.50;2.30;;;;;;;19.51;32.50;100963.42;;;;-52
2020/04/06 04:52:57;;;;;;;2.81;2.21;;;;;;;19.53;32.53;100963.52;;;;-52
2020/04/06 04:55:57;;;;;;;2.33;2.13;;;;;;;19.52;32.46;100965.59;;;;-52
2020/04/06 04:58:57;;;;;;;2.56;2.31;;;;;;;19.53;32.47;100974.19;;;;-52
2020/04/06 05:01:58;;;;;;;2.41;2.21;;;;;;;19.54;32.46;100975.30;;;;-52
2020/04/06 05:04:58;;;;;;;2.39;2.19;;;;;;;19.54;32.43;100976.58;;;;-52
2020/04/06 05:07:57;;;;;;;2.46;2.26;;;;;;;19.53;32.46;100980.11;;;;-52
2020/04/06 05:10:57;;;;;;;2.37;2.17;;;;;;;19.52;32.44;100988.27;;;;-52
2020/04/06 05:13:57;;;;;;;2.37;2.17;;;;;;;19.53;32.47;100995.80;;;;-52
2020/04/06 05:16:57;;;;;;;2.35;2.15;;;;;;;19.52;32.40;101007.48;;;;-52
2020/04/06 05:19:58;;;;;;;2.88;2.10;;;;;;;19.52;32.40;101011.49;;;;-52
2020/04/06 05:22:57;;;;;;;2.40;2.20;;;;;;;19.51;32.40;101018.15;;;;-52
2020/04/06 05:25:57;;;;;;;2.61;2.41;;;;;;;19.51;32.39;101027.42;;;;-52
2020/04/06 05:28:57;;;;;;;2.46;2.26;;;;;;;19.50;32.31;101029.70;;;;-52
2020/04/06 05:32:01;;;;;;;2.30;2.11;;;;;;;19.49;32.36;101038.65;;;;-51
2020/04/06 05:34:57;;;;;;;2.50;2.30;;;;;;;19.50;32.36;101044.55;;;;-52
2020/04/06 05:38:02;;;;;;;2.77;2.41;;;;;;;19.48;32.35;101043.95;;;;-52
2020/04/06 05:41:12;;;;;;;2.58;2.38;;;;;;;19.48;32.30;101050.20;;;;-52
2020/04/06 05:44:20;;;;;;;2.99;2.11;;;;;;;19.47;32.36;101058.86;;;;-52
2020/04/06 05:47:01;;;;;;;2.70;2.37;;;;;;;19.46;32.36;101062.95;;;;-52
2020/04/06 05:49:57;;;;;;;2.86;2.31;;;;;;;19.46;32.33;101069.02;;;;-52
2020/04/06 05:52:57;;;;;;;2.53;2.33;;;;;;;19.45;32.32;101067.58;;;;-52
2020/04/06 05:55:57;;;;;;;2.51;2.30;;;;;;;19.45;32.34;101071.02;;;;-52
2020/04/06 05:58:57;;;;;;;2.59;2.39;;;;;;;19.44;32.32;101073.31;;;;-52
2020/04/06 06:01:57;;;;;;;2.31;2.11;;;;;;;19.44;32.34;101081.86;;;;-52
2020/04/06 06:04:57;;;;;;;2.49;2.29;;;;;;;19.43;32.33;101080.41;;;;-52
2020/04/06 06:07:57;;;;;;;2.37;2.17;;;;;;;19.44;32.31;101087.34;;;;-52
2020/04/06 06:10:57;;;;;;;2.59;2.30;;;;;;;19.43;32.26;101092.53;;;;-52
2020/04/06 06:13:57;;;;;;;2.45;2.25;;;;;;;19.42;32.29;101093.38;;;;-52
2020/04/06 06:16:57;;;;;;;2.50;2.30;;;;;;;19.42;32.35;101098.63;;;;-53
2020/04/06 06:19:58;;;;;;;2.41;2.21;;;;;;;19.42;32.28;101105.53;;;;-52
2020/04/06 06:22:58;;;;;;;2.68;2.45;;;;;;;19.42;32.28;101104.36;;;;-52
2020/04/06 06:25:57;;;;;;;2.60;2.40;;;;;;;19.42;32.31;101104.13;;;;-52
2020/04/06 06:28:57;;;;;;;2.51;2.31;;;;;;;19.42;32.28;101109.16;;;;-52
2020/04/06 06:31:57;;;;;;;2.34;2.14;;;;;;;19.43;32.25;101112.56;;;;-52
2020/04/06 06:34:57;;;;;;;2.41;2.18;;;;;;;19.44;32.25;101113.69;;;;-52
2020/04/06 06:37:58;;;;;;;2.39;2.17;;;;;;;19.43;32.27;101118.09;;;;-52
2020/04/06 06:40:58;;;;;;;2.41;2.21;;;;;;;19.44;32.29;101118.10;;;;-52
2020/04/06 06:43:57;;;;;;;2.54;2.34;;;;;;;19.44;32.27;101119.05;;;;-52
2020/04/06 06:46:57;;;;;;;2.61;2.41;;;;;;;19.45;32.24;101118.05;;;;-52
2020/04/06 06:49:57;;;;;;;2.43;2.23;;;;;;;19.44;32.26;101121.63;;;;-52
2020/04/06 06:52:57;;;;;;;2.45;2.25;;;;;;;19.45;32.23;101119.23;;;;-52
2020/04/06 06:55:58;;;;;;;2.56;2.36;;;;;;;19.46;32.26;101124.19;;;;-52
2020/04/06 06:58:58;;;;;;;2.69;2.40;;;;;;;19.46;32.25;101123.34;;;;-52
2020/04/06 07:01:57;;;;;;;2.66;2.46;;;;;;;19.47;32.24;101128.50;;;;-52
2020/04/06 07:04:57;;;;;;;2.50;2.30;;;;;;;19.47;32.23;101126.41;;;;-52
2020/04/06 07:07:57;;;;;;;2.58;2.38;;;;;;;19.47;32.22;101125.31;;;;-52
2020/04/06 07:10:57;;;;;;;2.69;2.49;;;;;;;19.48;32.22;101127.38;;;;-52
2020/04/06 07:13:57;;;;;;;2.51;2.28;;;;;;;19.48;32.24;101132.74;;;;-52
2020/04/06 07:16:57;;;;;;;2.50;2.29;;;;;;;19.48;32.21;101136.69;;;;-51
2020/04/06 07:19:57;;;;;;;2.51;2.31;;;;;;;19.50;32.20;101140.44;;;;-52
2020/04/06 07:22:57;;;;;;;2.82;2.40;;;;;;;19.50;32.26;101140.95;;;;-52
2020/04/06 07:25:57;;;;;;;2.45;2.25;;;;;;;19.50;32.26;101147.59;;;;-52
2020/04/06 07:28:57;;;;;;;2.63;2.43;;;;;;;19.51;32.22;101147.80;;;;-52
2020/04/06 07:31:57;;;;;;;2.60;2.40;;;;;;;19.50;32.17;101152.95;;;;-52
2020/04/06 07:34:58;;;;;;;2.51;2.31;;;;;;;19.50;32.19;101154.84;;;;-52
2020/04/06 07:37:58;;;;;;;2.71;2.40;;;;;;;19.50;32.20;101160.50;;;;-52
2020/04/06 07:40:57;;;;;;;2.75;2.54;;;;;;;19.50;32.22;101163.27;;;;-52
2020/04/06 07:43:57;;;;;;;2.58;2.38;;;;;;;19.51;32.21;101166.52;;;;-52
2020/04/06 07:46:57;;;;;;;2.65;2.45;;;;;;;19.50;32.24;101166.63;;;;-52
2020/04/06 07:49:57;;;;;;;2.50;2.30;;;;;;;19.50;32.18;101167.30;;;;-53
2020/04/06 07:52:57;;;;;;;2.70;2.50;;;;;;;19.50;32.22;101167.86;;;;-52
2020/04/06 07:55:57;;;;;;;2.63;2.43;;;;;;;19.50;32.22;101171.04;;;;-52
2020/04/06 07:58:57;;;;;;;2.90;2.50;;;;;;;19.50;32.24;101174.16;;;;-52
2020/04/06 08:01:57;;;;;;;2.65;2.45;;;;;;;19.49;32.20;101172.50;;;;-51
2020/04/06 08:04:57;;;;;;;2.47;2.27;;;;;;;19.50;32.24;101176.41;;;;-56
2020/04/06 08:07:57;;;;;;;2.50;2.30;;;;;;;19.50;32.19;101183.50;;;;-56
2020/04/06 08:10:57;;;;;;;2.57;2.31;;;;;;;19.49;32.23;101179.13;;;;-56
2020/04/06 08:47:40;;;;;;;10.04;3.43;;;;;;;19.56;33.02;101192.71;;;;-52
2020/04/06 08:50:42;;;;;;;6.72;4.85;;;;;;;19.45;32.63;101193.44;;;;-51
2020/04/06 08:53:37;;;;;;;6.96;5.53;;;;;;;19.40;32.57;101201.52;;;;-51
2020/04/06 08:56:52;;;;;;;7.17;5.83;;;;;;;19.33;32.50;101200.45;;;;-52
2020/04/06 08:59:44;;;;;;;7.74;6.31;;;;;;;19.28;32.62;101200.33;;;;-53
